Flight Track Log - Related Links

Times and Time Zones

All times are in EDT time to prevent confusion due to time zone crossing. See the N21315 flight status page for this flight to view local times or setup timezone preferences in your user account.

Time Position Orientation Groundspeed Altitude Reporting Facility
EDT Latitude Longitude Course Direction KTS MPH feet Rate Location/Type
Sun 08:44:49 AM 39.8667 -86.0000 123° Southeast 104 120 2,300  Level Indianapolis TRACON
Sun 08:45:49 AM 39.8500 -85.9667 123° Southeast 105 121 2,700 368 Climbing Indianapolis TRACON
Sun 08:46:43 AM 39.8333 -85.9667 180° South 94 108 3,000 337 Climbing Indianapolis TRACON
Sun 08:47:18 AM 39.8156 -85.9586 161° South 99 114 3,200 375 Climbing Indianapolis Center
Sun 08:48:19 AM 39.7917 -85.9433 154° Southeast 97 112 3,600 393 Climbing Indianapolis Center
Sun 08:49:20 AM 39.7686 -85.9242 147° Southeast 97 112 4,000 390 Climbing Indianapolis Center
Sun 08:50:22 AM 39.7450 -85.9069 151° Southeast 98 113 4,400 390 Climbing Indianapolis Center
Sun 08:51:23 AM 39.7167 -85.8864 151° Southeast 97 112 4,800 344 Climbing Indianapolis Center
Sun 08:52:24 AM 39.6925 -85.8672 149° Southeast 100 115 5,100 341 Climbing Indianapolis Center
Sun 08:53:26 AM 39.6675 -85.8486 150° Southeast 102 117 5,500 341 Climbing Indianapolis Center
Sun 08:54:27 AM 39.6422 -85.8331 155° Southeast 102 117 5,800 390 Climbing Indianapolis Center
Sun 08:55:29 AM 39.6217 -85.8097 139° Southeast 100 115 6,300 390 Climbing Indianapolis Center
Sun 08:56:30 AM 39.6075 -85.7764 119° Southeast 103 119 6,600 295 Climbing Indianapolis Center
Sun 08:57:31 AM 39.5914 -85.7456 124° Southeast 103 119 6,900 244 Climbing Indianapolis Center
Sun 08:58:33 AM 39.5733 -85.7114 124° Southeast 108 124 7,100 146 Climbing Indianapolis Center
Sun 08:59:34 AM 39.5472 -85.6636 125° Southeast 123 142 7,200  Climbing Indianapolis Center
Sun 09:00:36 AM 39.5231 -85.6200 126° Southeast 144 166 7,100 -49 Descending Indianapolis Center
Sun 09:01:37 AM 39.4989 -85.5761 126° Southeast 148 170 7,100  Level Indianapolis Center
Sun 09:02:39 AM 39.4750 -85.5336 126° Southeast 147 169 7,100 -48 Level Indianapolis Center
Sun 09:03:41 AM 39.4517 -85.4886 124° Southeast 150 173 7,000  Descending Indianapolis Center
Sun 09:04:42 AM 39.4275 -85.4469 127° Southeast 145 167 7,100 -49 Climbing Indianapolis Center
Sun 09:05:44 AM 39.4119 -85.3992 113° Southeast 147 169 6,900 -293 Descending Indianapolis Center
Sun 09:06:45 AM 39.4089 -85.3453 94° East 149 171 6,500 -390 Descending Indianapolis Center
Sun 09:07:47 AM 39.4064 -85.2819 93° East 148 170 6,100 -341 Descending Indianapolis Center
Sun 09:08:48 AM 39.4042 -85.2297 93° East 147 169 5,800 -341 Descending Indianapolis Center
Sun 09:09:50 AM 39.4006 -85.1794 95° East 144 166 5,400 -390 Descending Indianapolis Center
Sun 09:10:51 AM 39.3981 -85.1283 94° East 143 165 5,000 -341 Descending Indianapolis Center
Sun 09:11:53 AM 39.3967 -85.0764 92° East 144 166 4,700 -242 Descending Indianapolis Center
Sun 09:12:55 AM 39.3922 -85.0253 96° East 144 166 4,500 -293 Descending Indianapolis Center
Sun 09:13:56 AM 39.3892 -84.9764 95° East 141 162 4,100 -341 Descending Indianapolis Center
Sun 09:14:58 AM 39.3869 -84.9158 93° East 140 161 3,800 -290 Descending Indianapolis Center
Sun 09:16:00 AM 39.3856 -84.8675 92° East 138 159 3,500 -244 Descending Indianapolis Center
Sun 09:17:01 AM 39.3825 -84.8244 95° East 137 158 3,300 -182 Descending Indianapolis Center
Sun 09:19:18 AM 39.3833 -84.7000 89° East 128 147 2,900 -175 Descending Cincinnati TRACON

Login

Don't have an account? Register now (free) for customized features, flight alerts, and more!